Time;durP1;ratioP1;P1;durP2;ratioP2;P2;SDS_P1;SDS_P2;PMS_P1;PMS_P2;Temp;Humidity;BMP_temperature;BMP_pressure;BME280_temperature;BME280_humidity;BME280_pressure;Samples;Min_cycle;Max_cycle;Signal;HPM_P1;HPM_P2
2021/12/31 00:02:19;;;;;;;53.80;25.23;;;;;;;3.61;100.00;98168.03;4930091;29;20028;-85
2021/12/31 00:04:45;;;;;;;62.42;28.73;;;;;;;3.62;100.00;98165.38;4918460;29;20039;-85
2021/12/31 00:07:11;;;;;;;59.05;26.23;;;;;;;3.59;100.00;98152.22;4930886;29;20046;-86
2021/12/31 00:09:37;;;;;;;58.33;26.58;;;;;;;3.68;100.00;98157.28;4921468;29;20135;-85
2021/12/31 00:12:04;;;;;;;59.58;26.85;;;;;;;3.63;100.00;98163.59;4925727;29;20049;-85
2021/12/31 00:14:30;;;;;;;57.67;26.70;;;;;;;3.66;100.00;98152.94;4933961;29;20503;-85
2021/12/31 00:16:56;;;;;;;58.15;25.92;;;;;;;3.71;100.00;98149.28;4928067;29;20423;-86
2021/12/31 00:19:22;;;;;;;58.08;25.80;;;;;;;3.50;100.00;98131.28;4919771;29;20039;-85
2021/12/31 00:21:49;;;;;;;57.10;25.38;;;;;;;3.45;100.00;98149.03;4916040;29;20092;-85
2021/12/31 00:24:15;;;;;;;60.70;26.42;;;;;;;3.57;100.00;98163.75;4921811;29;20087;-85
2021/12/31 00:26:41;;;;;;;60.45;25.90;;;;;;;3.66;100.00;98155.59;4914347;29;20087;-85
2021/12/31 00:29:06;;;;;;;61.30;28.77;;;;;;;3.65;100.00;98145.91;4914974;29;20046;-84
2021/12/31 00:31:32;;;;;;;57.92;28.25;;;;;;;3.73;100.00;98157.16;4920031;29;20074;-83
2021/12/31 00:33:57;;;;;;;60.05;27.13;;;;;;;3.74;100.00;98157.13;4918643;29;20060;-84
2021/12/31 00:36:38;;;;;;;66.90;29.73;;;;;;;3.73;100.00;98139.50;4916483;29;20027;-84
2021/12/31 00:39:03;;;;;;;61.47;29.27;;;;;;;3.64;100.00;98113.28;4917918;29;20044;-84
2021/12/31 00:41:29;;;;;;;65.63;29.02;;;;;;;3.73;100.00;98121.00;4940489;29;20571;-84
2021/12/31 00:43:54;;;;;;;68.55;32.75;;;;;;;3.77;100.00;98127.94;4940373;29;20061;-85
2021/12/31 00:46:20;;;;;;;71.53;31.98;;;;;;;3.90;100.00;98147.03;4924975;29;20062;-85
2021/12/31 00:48:46;;;;;;;69.05;31.38;;;;;;;3.93;100.00;98141.66;4911843;29;20065;-85
2021/12/31 00:51:11;;;;;;;77.45;35.28;;;;;;;3.87;100.00;98140.94;4939993;29;20043;-84
2021/12/31 00:53:37;;;;;;;79.50;36.50;;;;;;;3.77;100.00;98132.38;4932926;29;20047;-85
2021/12/31 00:56:02;;;;;;;75.25;36.33;;;;;;;3.73;100.00;98162.44;4927604;29;20046;-85
2021/12/31 00:58:28;;;;;;;77.53;36.35;;;;;;;3.83;100.00;98161.31;4927464;29;20035;-84
2021/12/31 01:00:53;;;;;;;77.15;35.95;;;;;;;3.84;100.00;98148.03;4932347;29;20039;-85
2021/12/31 01:03:19;;;;;;;71.03;32.90;;;;;;;3.76;100.00;98134.13;4938699;29;20066;-85
2021/12/31 01:05:44;;;;;;;74.35;34.15;;;;;;;3.82;100.00;98141.03;4924089;29;20188;-85
2021/12/31 01:08:11;;;;;;;73.18;32.85;;;;;;;3.80;100.00;98141.09;4937682;29;20042;-85
2021/12/31 01:10:36;;;;;;;71.75;33.38;;;;;;;3.70;100.00;98121.06;4934502;29;20031;-86
2021/12/31 01:13:19;;;;;;;76.95;34.08;;;;;;;3.61;100.00;98112.50;4943501;29;20039;-85
2021/12/31 01:15:46;;;;;;;;;;;;;;;3.71;100.00;98143.97;4924048;29;20587;-85
2021/12/31 01:20:38;;;;;;;71.07;31.27;;;;;;;3.66;100.00;98126.50;4925842;29;21744;-86
2021/12/31 01:23:05;;;;;;;70.90;32.35;;;;;;;3.58;100.00;98125.81;4929611;29;20047;-86
2021/12/31 01:25:31;;;;;;;75.07;32.15;;;;;;;3.54;100.00;98143.50;4915921;28;20047;-86
2021/12/31 01:27:56;;;;;;;74.30;34.13;;;;;;;3.51;100.00;98146.22;4914119;29;20039;-86
2021/12/31 01:30:22;;;;;;;101.47;38.63;;;;;;;3.19;100.00;98135.56;4920346;29;20027;-86
2021/12/31 01:32:48;;;;;;;88.88;36.60;;;;;;;3.08;100.00;98132.28;4929163;29;20526;-85
2021/12/31 01:35:14;;;;;;;83.28;33.95;;;;;;;3.00;100.00;98129.84;4907399;29;20039;-85
2021/12/31 01:37:40;;;;;;;99.43;41.17;;;;;;;2.97;100.00;98140.47;4918866;29;20047;-85
2021/12/31 01:40:07;;;;;;;80.13;35.70;;;;;;;2.83;100.00;98126.69;4920522;29;20526;-85
2021/12/31 01:42:33;;;;;;;87.55;36.45;;;;;;;2.78;100.00;98122.41;4929421;29;20070;-85
2021/12/31 01:45:08;;;;;;;76.05;34.65;;;;;;;2.79;100.00;98140.88;4923388;29;20041;-85
2021/12/31 01:47:36;;;;;;;78.03;34.40;;;;;;;2.65;100.00;98122.69;4927835;29;20035;-86
2021/12/31 01:50:07;;;;;;;85.18;36.10;;;;;;;2.63;100.00;98135.06;4935922;29;20035;-86
2021/12/31 01:52:39;;;;;;;86.78;37.88;;;;;;;2.57;100.00;98144.88;4919228;29;20043;-85
2021/12/31 01:55:06;;;;;;;88.82;36.65;;;;;;;2.57;100.00;98160.72;4921892;29;20031;-85
2021/12/31 01:57:32;;;;;;;97.15;35.92;;;;;;;2.38;100.00;98139.09;4938828;29;20043;-87
2021/12/31 01:59:58;;;;;;;83.88;37.72;;;;;;;2.36;100.00;98151.47;4914927;29;20045;-84
2021/12/31 02:02:23;;;;;;;98.80;39.83;;;;;;;2.40;100.00;98166.31;4913128;29;20126;-85
2021/12/31 02:04:49;;;;;;;89.18;38.50;;;;;;;2.45;100.00;98177.69;4903958;29;20122;-85
2021/12/31 02:07:14;;;;;;;91.13;39.55;;;;;;;2.42;100.00;98153.13;4909194;29;20031;-84
2021/12/31 02:09:48;;;;;;;82.80;38.78;;;;;;;2.46;100.00;98162.72;4930310;29;20095;-84
2021/12/31 02:12:13;;;;;;;88.43;39.33;;;;;;;2.59;100.00;98165.06;4938416;29;20035;-83
2021/12/31 02:14:39;;;;;;;83.15;38.65;;;;;;;2.63;100.00;98171.16;4919120;29;20499;-85
2021/12/31 02:17:07;;;;;;;89.65;38.80;;;;;;;2.66;100.00;98174.59;4934582;29;20106;-84
2021/12/31 02:19:34;;;;;;;85.03;38.00;;;;;;;2.64;100.00;98168.50;4920518;29;20054;-85
2021/12/31 02:22:00;;;;;;;91.88;38.70;;;;;;;2.76;100.00;98175.28;4932719;29;20039;-85
2021/12/31 02:24:26;;;;;;;79.82;36.60;;;;;;;2.78;100.00;98164.69;4927476;29;20058;-85
2021/12/31 02:26:51;;;;;;;81.18;38.83;;;;;;;2.85;100.00;98168.94;4936562;29;20043;-85
2021/12/31 02:29:18;;;;;;;102.45;44.63;;;;;;;2.82;100.00;98166.34;4909404;29;20035;-85
2021/12/31 02:31:44;;;;;;;107.88;44.10;;;;;;;2.87;100.00;98164.47;4932666;29;20043;-85
2021/12/31 02:34:09;;;;;;;89.22;38.38;;;;;;;2.82;100.00;98164.59;4918154;29;20035;-85
2021/12/31 02:36:35;;;;;;;88.13;36.35;;;;;;;2.91;100.00;98166.16;4928942;29;20070;-86
2021/12/31 02:39:01;;;;;;;98.90;39.88;;;;;;;2.96;100.00;98183.66;4917239;29;20044;-86
2021/12/31 02:41:26;;;;;;;95.75;37.30;;;;;;;2.86;100.00;98181.25;4916968;29;20118;-85
2021/12/31 02:43:52;;;;;;;104.97;38.25;;;;;;;2.83;100.00;98184.81;4937772;29;20035;-86
2021/12/31 02:46:17;;;;;;;90.03;36.88;;;;;;;2.89;100.00;98199.69;4938353;29;20527;-86
2021/12/31 02:48:44;;;;;;;81.50;35.22;;;;;;;2.84;100.00;98185.69;4912279;29;20039;-85
2021/12/31 02:51:09;;;;;;;84.15;33.72;;;;;;;2.91;100.00;98205.78;4930169;29;20039;-84
2021/12/31 02:53:42;;;;;;;84.07;34.38;;;;;;;2.96;100.00;98188.06;4906159;29;20043;-85
2021/12/31 02:56:09;;;;;;;77.40;34.10;;;;;;;3.02;100.00;98219.63;4919129;29;20039;-85
2021/12/31 02:58:36;;;;;;;81.88;32.90;;;;;;;3.12;100.00;98215.88;4927845;29;20428;-85
2021/12/31 03:01:04;;;;;;;103.65;37.78;;;;;;;3.01;100.00;98208.22;4909123;29;20047;-85
2021/12/31 03:03:31;;;;;;;87.15;32.65;;;;;;;2.96;100.00;98204.78;4916439;29;20075;-84
2021/12/31 03:05:57;;;;;;;119.05;30.98;;;;;;;2.92;100.00;98197.84;4921605;29;20035;-84
2021/12/31 03:08:27;;;;;;;88.28;30.90;;;;;;;3.04;100.00;98225.78;4921736;29;20094;-85
2021/12/31 03:10:54;;;;;;;80.97;31.13;;;;;;;3.01;100.00;98218.78;4926179;29;20059;-87
2021/12/31 03:13:21;;;;;;;85.85;32.08;;;;;;;2.96;100.00;98202.13;4933809;29;20463;-85
2021/12/31 03:15:48;;;;;;;95.97;31.92;;;;;;;2.89;100.00;98204.97;4929402;29;20040;-85
2021/12/31 03:18:15;;;;;;;87.50;30.95;;;;;;;3.03;100.00;98224.91;4913597;29;20467;-85
2021/12/31 03:20:57;;;;;;;78.80;26.27;;;;;;;2.93;100.00;98217.19;4918936;29;20046;-85
2021/12/31 03:23:23;;;;;;;77.10;27.48;;;;;;;3.04;100.00;98236.34;4924028;29;20047;-86
2021/12/31 03:25:48;;;;;;;77.40;26.38;;;;;;;3.00;100.00;98243.47;4919979;29;20425;-86
2021/12/31 03:28:14;;;;;;;77.63;28.35;;;;;;;2.89;100.00;98224.28;4931680;29;20082;-85
2021/12/31 03:30:40;;;;;;;78.80;28.52;;;;;;;2.99;100.00;98233.78;4926957;29;20476;-85
2021/12/31 03:33:05;;;;;;;71.57;26.52;;;;;;;2.92;100.00;98231.31;4909968;29;20039;-85
2021/12/31 03:35:31;;;;;;;83.65;26.27;;;;;;;3.09;100.00;98245.91;4929322;29;20067;-84
2021/12/31 03:37:56;;;;;;;91.43;27.23;;;;;;;2.99;100.00;98228.50;4902857;29;20048;-85
2021/12/31 03:40:23;;;;;;;145.73;27.13;;;;;;;2.77;100.00;98221.06;4931934;29;20082;-84
2021/12/31 03:42:48;;;;;;;181.38;28.85;;;;;;;2.69;100.00;98255.53;4908153;29;20040;-84
2021/12/31 03:45:14;;;;;;;114.78;28.92;;;;;;;2.69;100.00;98245.84;4916131;29;20420;-84
2021/12/31 03:47:40;;;;;;;118.90;30.50;;;;;;;2.71;100.00;98246.69;4913760;29;20098;-84
2021/12/31 03:50:05;;;;;;;116.25;29.70;;;;;;;2.82;100.00;98246.47;4926072;29;20035;-84
2021/12/31 03:52:31;;;;;;;105.75;30.45;;;;;;;2.88;100.00;98256.91;4918535;29;20088;-86
2021/12/31 03:54:57;;;;;;;155.10;33.65;;;;;;;2.80;100.00;98232.41;4909444;29;20499;-86
2021/12/31 03:57:22;;;;;;;112.65;28.58;;;;;;;2.67;100.00;98225.66;4937543;29;20043;-86
2021/12/31 03:59:48;;;;;;;152.55;28.17;;;;;;;2.62;100.00;98233.66;4918872;29;20040;-85
2021/12/31 04:02:13;;;;;;;141.90;28.42;;;;;;;2.58;100.00;98220.56;4925533;29;20043;-85
2021/12/31 04:04:39;;;;;;;226.35;29.38;;;;;;;2.64;100.00;98215.16;4925397;29;20503;-86
2021/12/31 04:07:04;;;;;;;329.40;32.47;;;;;;;2.65;100.00;98225.66;4905600;29;20047;-85
2021/12/31 04:09:30;;;;;;;163.90;29.80;;;;;;;2.59;100.00;98233.72;4913508;29;20039;-85
2021/12/31 04:11:55;;;;;;;178.77;28.75;;;;;;;2.48;100.00;98224.28;4908137;29;20032;-86
2021/12/31 04:14:21;;;;;;;175.80;29.50;;;;;;;2.48;100.00;98240.09;4911558;29;20059;-85
2021/12/31 04:16:46;;;;;;;152.40;29.90;;;;;;;2.42;100.00;98209.41;4924669;29;20043;-86
2021/12/31 04:19:12;;;;;;;385.58;38.08;;;;;;;2.54;100.00;98219.75;4931521;29;20048;-85
2021/12/31 04:21:38;;;;;;;395.27;36.65;;;;;;;2.62;100.00;98228.38;4927639;29;20047;-86
2021/12/31 04:24:13;;;;;;;619.75;44.35;;;;;;;2.70;100.00;98229.13;4932438;29;20039;-85
2021/12/31 04:26:40;;;;;;;380.33;32.30;;;;;;;2.67;100.00;98223.00;4925714;29;20039;-84
2021/12/31 04:29:05;;;;;;;145.32;27.33;;;;;;;2.61;100.00;98226.66;4917580;29;20042;-85
2021/12/31 04:31:31;;;;;;;213.70;27.67;;;;;;;2.60;100.00;98230.19;4929213;29;20055;-85
2021/12/31 04:33:59;;;;;;;675.75;38.40;;;;;;;2.54;100.00;98219.75;4937762;29;20061;-85
2021/12/31 04:37:10;;;;;;;428.20;29.20;;;;;;;2.57;100.00;98230.25;4937059;29;20039;-85
2021/12/31 04:39:35;;;;;;;277.83;26.42;;;;;;;2.42;100.00;98219.09;4942284;29;20043;-85
2021/12/31 04:42:02;;;;;;;462.58;33.88;;;;;;;2.47;100.00;98238.34;4924869;29;20037;-85
2021/12/31 04:44:27;;;;;;;372.35;30.15;;;;;;;2.37;100.00;98236.81;4909986;29;20041;-85
2021/12/31 04:46:53;;;;;;;424.30;34.97;;;;;;;2.43;100.00;98256.03;4917198;29;20040;-86
2021/12/31 04:49:19;;;;;;;317.83;36.22;;;;;;;2.24;100.00;98240.56;4931947;29;20031;-87
2021/12/31 04:51:44;;;;;;;483.75;39.63;;;;;;;2.12;100.00;98241.66;4923242;29;20039;-85
2021/12/31 04:54:15;;;;;;;373.27;35.42;;;;;;;2.17;100.00;98271.47;4916768;29;20521;-85
2021/12/31 04:56:42;;;;;;;511.48;35.38;;;;;;;2.06;100.00;98262.88;4941040;29;20611;-85
2021/12/31 04:59:09;;;;;;;459.10;35.78;;;;;;;1.98;100.00;98254.19;4928414;29;20098;-85
2021/12/31 05:01:34;;;;;;;416.80;34.65;;;;;;;2.10;100.00;98262.78;4924647;29;20027;-85
2021/12/31 05:04:00;;;;;;;578.88;39.58;;;;;;;2.09;100.00;98250.47;4911129;29;20038;-86
2021/12/31 05:06:25;;;;;;;381.63;35.85;;;;;;;2.19;100.00;98267.91;4919276;29;20470;-87
2021/12/31 05:08:51;;;;;;;582.10;42.42;;;;;;;2.19;100.00;98259.09;4918655;29;20411;-86
2021/12/31 05:11:20;;;;;;;259.45;36.13;;;;;;;2.19;100.00;98245.91;4937179;29;20039;-85
2021/12/31 05:13:46;;;;;;;226.85;37.38;;;;;;;2.13;100.00;98227.53;4939899;29;20430;-83
2021/12/31 05:16:12;;;;;;;305.40;34.20;;;;;;;2.18;100.00;98242.38;4922492;29;20027;-85
2021/12/31 05:18:37;;;;;;;662.28;44.00;;;;;;;2.16;100.00;98240.69;4938528;29;20050;-84
2021/12/31 05:21:03;;;;;;;182.77;30.15;;;;;;;2.04;100.00;98233.84;4922170;29;20047;-85
2021/12/31 05:23:29;;;;;;;275.77;31.90;;;;;;;2.04;100.00;98232.97;4929623;29;20039;-85
2021/12/31 05:25:54;;;;;;;217.88;29.77;;;;;;;1.89;100.00;98223.56;4921571;29;20043;-84
2021/12/31 05:28:20;;;;;;;297.20;29.95;;;;;;;1.84;100.00;98232.47;4916408;29;20118;-85
2021/12/31 05:30:45;;;;;;;305.15;30.02;;;;;;;1.85;100.00;98242.09;4929989;29;20073;-84
2021/12/31 05:33:11;;;;;;;326.98;34.28;;;;;;;1.81;100.00;98235.16;4909593;29;20043;-85
2021/12/31 05:35:37;;;;;;;322.30;30.70;;;;;;;1.88;100.00;98226.22;4921354;29;20067;-87
2021/12/31 05:38:02;;;;;;;345.38;40.67;;;;;;;1.96;100.00;98238.41;4923617;29;20066;-85
2021/12/31 05:40:28;;;;;;;617.40;40.95;;;;;;;1.94;100.00;98242.81;4905666;29;20067;-84
2021/12/31 05:43:03;;;;;;;274.20;32.63;;;;;;;1.94;100.00;98241.97;4920752;29;20424;-84
2021/12/31 05:45:29;;;;;;;508.20;40.22;;;;;;;2.03;100.00;98252.38;4922934;29;20035;-85
2021/12/31 05:47:55;;;;;;;532.03;44.42;;;;;;;2.01;100.00;98260.28;4909514;29;20038;-85
2021/12/31 05:50:29;;;;;;;694.85;57.53;;;;;;;1.85;100.00;98250.00;4922939;29;20416;-85
2021/12/31 05:52:59;;;;;;;523.65;46.38;;;;;;;1.81;100.00;98269.44;4918517;29;20043;-86
2021/12/31 05:55:26;;;;;;;616.42;50.15;;;;;;;1.74;100.00;98255.47;4935085;29;20039;-85
2021/12/31 05:57:52;;;;;;;129.15;33.80;;;;;;;1.88;100.00;98269.28;4920468;29;20134;-85
2021/12/31 06:00:19;;;;;;;386.77;44.08;;;;;;;1.94;100.00;98271.00;4928976;29;20106;-76
2021/12/31 06:02:44;;;;;;;207.93;39.60;;;;;;;1.97;100.00;98263.88;4930102;29;20039;-76
2021/12/31 06:05:10;;;;;;;356.13;60.15;;;;;;;2.01;100.00;98264.69;4930809;29;20042;-85
2021/12/31 06:07:36;;;;;;;481.80;50.25;;;;;;;2.04;100.00;98270.78;4911279;29;20047;-81
2021/12/31 06:10:01;;;;;;;537.90;47.47;;;;;;;2.12;100.00;98262.75;4932207;29;20090;-82
2021/12/31 06:12:28;;;;;;;175.55;29.50;;;;;;;2.10;100.00;98267.19;4926847;29;20040;-84
2021/12/31 06:14:58;;;;;;;645.42;43.30;;;;;;;2.06;100.00;98271.63;4920374;29;20043;-86
2021/12/31 06:17:26;;;;;;;292.98;32.20;;;;;;;1.81;100.00;98250.97;4909500;29;20462;-85
2021/12/31 06:19:53;;;;;;;344.52;34.25;;;;;;;2.03;100.00;98265.56;4922794;29;20040;-84
2021/12/31 06:22:19;;;;;;;215.85;32.95;;;;;;;2.11;100.00;98261.00;4922309;29;20074;-84
2021/12/31 06:24:45;;;;;;;270.85;31.10;;;;;;;2.15;100.00;98284.66;4917631;29;20043;-85
2021/12/31 06:27:10;;;;;;;171.43;34.25;;;;;;;2.10;100.00;98275.09;4917696;29;20058;-84
2021/12/31 06:29:36;;;;;;;393.83;38.65;;;;;;;1.97;100.00;98257.75;4919824;29;20109;-84
2021/12/31 06:32:01;;;;;;;685.20;41.53;;;;;;;2.03;100.00;98271.69;4915954;29;20041;-85
2021/12/31 06:34:30;;;;;;;322.60;30.30;;;;;;;1.92;100.00;98256.94;4914681;29;20069;-85
2021/12/31 06:36:56;;;;;;;485.52;46.90;;;;;;;1.95;100.00;98256.88;4911135;29;20046;-85
2021/12/31 06:39:21;;;;;;;465.95;45.13;;;;;;;2.06;100.00;98270.78;4921384;29;20500;-86
2021/12/31 06:41:47;;;;;;;395.88;47.28;;;;;;;2.14;100.00;98264.47;4921731;29;20123;-85
2021/12/31 06:44:13;;;;;;;365.08;39.08;;;;;;;2.20;100.00;98268.78;4914588;29;20139;-85
2021/12/31 06:46:39;;;;;;;458.63;40.35;;;;;;;2.23;100.00;98259.94;4910078;29;20049;-85
2021/12/31 06:49:05;;;;;;;371.98;39.25;;;;;;;2.22;100.00;98266.97;4931265;29;20523;-85
2021/12/31 06:51:31;;;;;;;219.05;26.88;;;;;;;2.14;100.00;98279.44;4932958;29;20043;-85
2021/12/31 06:53:57;;;;;;;357.92;30.42;;;;;;;2.15;100.00;98286.47;4918129;29;20042;-85
2021/12/31 06:56:22;;;;;;;164.00;26.17;;;;;;;2.14;100.00;98304.06;4908770;29;20430;-84
2021/12/31 06:58:48;;;;;;;457.02;32.08;;;;;;;1.98;100.00;98285.84;4918626;29;20512;-85
2021/12/31 07:01:14;;;;;;;197.50;38.13;;;;;;;2.23;100.00;98297.75;4914148;29;20135;-86
2021/12/31 07:03:41;;;;;;;113.45;23.63;;;;;;;2.26;100.00;98297.69;4930359;29;20091;-84
2021/12/31 07:06:07;;;;;;;214.48;26.00;;;;;;;2.20;100.00;98297.78;4931991;29;20036;-84
2021/12/31 07:08:35;;;;;;;105.43;20.45;;;;;;;2.07;100.00;98275.16;4918913;29;20491;-85
2021/12/31 07:11:01;;;;;;;204.13;24.85;;;;;;;2.17;100.00;98300.50;4912998;29;20044;-84
2021/12/31 07:13:27;;;;;;;181.50;21.85;;;;;;;2.13;100.00;98304.06;4911703;29;20037;-86
2021/12/31 07:15:54;;;;;;;150.93;21.08;;;;;;;2.11;100.00;98300.59;4915857;29;20035;-85
2021/12/31 07:18:21;;;;;;;161.20;24.92;;;;;;;2.13;100.00;98296.16;4921174;29;20106;-84
2021/12/31 07:20:47;;;;;;;152.77;47.13;;;;;;;2.26;100.00;98325.84;4908929;29;20066;-85
2021/12/31 07:23:15;;;;;;;179.50;25.13;;;;;;;2.36;100.00;98322.16;4921832;29;20031;-85
2021/12/31 07:25:41;;;;;;;129.52;31.83;;;;;;;2.32;100.00;98329.25;4914811;28;20035;-85
2021/12/31 07:28:09;;;;;;;129.57;30.95;;;;;;;2.24;100.00;98310.06;4903162;29;20480;-86
2021/12/31 07:30:38;;;;;;;110.53;25.45;;;;;;;2.33;100.00;98320.44;4912828;29;20038;-84
2021/12/31 07:33:04;;;;;;;173.65;42.55;;;;;;;2.23;100.00;98297.75;4915669;29;20122;-84
2021/12/31 07:35:31;;;;;;;132.70;38.55;;;;;;;2.32;100.00;98308.13;4935014;29;20507;-87
2021/12/31 07:37:57;;;;;;;149.75;29.50;;;;;;;2.43;100.00;98315.88;4938281;29;20411;-85
2021/12/31 07:40:39;;;;;;;147.40;35.10;;;;;;;2.49;100.00;98310.50;4918961;29;20035;-88
2021/12/31 07:43:10;;;;;;;102.30;31.85;;;;;;;2.62;100.00;98323.44;4905001;29;20058;-87
2021/12/31 07:45:36;;;;;;;178.00;35.45;;;;;;;2.64;100.00;98321.66;4917215;29;20042;-87
2021/12/31 07:48:03;;;;;;;217.05;36.97;;;;;;;2.59;100.00;98317.34;4903214;29;20028;-86
2021/12/31 07:50:29;;;;;;;196.88;36.92;;;;;;;2.58;100.00;98291.84;4936350;29;20492;-84
2021/12/31 07:52:54;;;;;;;189.52;45.03;;;;;;;2.73;100.00;98312.69;4917494;29;20047;-85
2021/12/31 07:58:47;;;;;;;183.70;34.35;;;;;;;2.73;100.00;98247.53;4941889;29;20038;-85
2021/12/31 08:01:17;;;;;;;140.02;33.83;;;;;;;3.02;100.00;98269.81;4939700;29;20035;-84
2021/12/31 08:03:43;;;;;;;147.05;33.40;;;;;;;3.21;100.00;98271.19;4923990;29;20516;-84
2021/12/31 08:06:08;;;;;;;118.53;23.38;;;;;;;3.42;100.00;98313.03;4918458;29;20078;-84
2021/12/31 08:08:34;;;;;;;130.07;22.35;;;;;;;3.33;100.00;98270.94;4922914;29;20095;-84
2021/12/31 08:10:59;;;;;;;114.38;25.98;;;;;;;3.34;100.00;98291.19;4928195;29;20411;-84
2021/12/31 08:13:25;;;;;;;177.60;30.20;;;;;;;3.39;100.00;98291.94;4927218;29;20104;-85
2021/12/31 08:15:51;;;;;;;208.18;29.08;;;;;;;3.24;100.00;98297.56;4941120;29;20035;-85
2021/12/31 08:18:16;;;;;;;277.10;28.02;;;;;;;3.39;100.00;98301.66;4928689;29;20043;-84
2021/12/31 08:20:42;;;;;;;146.35;25.85;;;;;;;3.43;100.00;98298.03;4930083;29;20127;-84
2021/12/31 08:23:09;;;;;;;208.75;29.67;;;;;;;3.32;100.00;98311.50;4919368;29;20527;-85
2021/12/31 08:25:36;;;;;;;387.17;35.97;;;;;;;3.13;100.00;98310.16;4918013;28;20118;-84
2021/12/31 08:28:01;;;;;;;120.32;27.77;;;;;;;3.21;100.00;98308.19;4932727;29;20035;-84
2021/12/31 08:30:27;;;;;;;119.68;31.42;;;;;;;3.22;100.00;98289.69;4940153;29;20027;-85
2021/12/31 08:32:53;;;;;;;187.02;37.65;;;;;;;3.03;100.00;98264.53;4920830;29;20511;-84
2021/12/31 08:35:18;;;;;;;228.38;51.70;;;;;;;3.51;100.00;98304.91;4933961;29;20077;-85
2021/12/31 08:37:44;;;;;;;185.73;51.13;;;;;;;3.54;100.00;98298.66;4921413;29;20100;-85
2021/12/31 08:40:10;;;;;;;159.15;50.70;;;;;;;3.68;100.00;98289.53;4921281;29;20047;-85
2021/12/31 08:42:36;;;;;;;301.17;79.13;;;;;;;3.56;100.00;98295.13;4928685;29;20062;-85
2021/12/31 08:45:02;;;;;;;273.83;53.33;;;;;;;3.38;100.00;98277.00;4920300;29;20043;-85
2021/12/31 08:47:28;;;;;;;225.60;54.53;;;;;;;3.44;100.00;98287.44;4911957;29;20051;-83
2021/12/31 08:49:53;;;;;;;301.15;60.00;;;;;;;3.45;100.00;98278.59;4924092;29;20041;-84
2021/12/31 08:52:19;;;;;;;209.70;55.08;;;;;;;3.60;100.00;98274.75;4940003;29;20111;-86
2021/12/31 08:54:46;;;;;;;281.63;53.03;;;;;;;3.63;100.00;98253.53;4924287;29;20495;-85
2021/12/31 08:57:12;;;;;;;233.93;47.25;;;;;;;3.51;100.00;98265.22;4924201;29;20035;-84
2021/12/31 08:59:37;;;;;;;254.23;49.47;;;;;;;3.81;100.00;98259.22;4931837;29;20098;-88
2021/12/31 09:02:03;;;;;;;135.75;36.95;;;;;;;3.64;100.00;98260.53;4916271;29;20043;-85
2021/12/31 09:04:28;;;;;;;160.20;36.90;;;;;;;3.70;100.00;98253.34;4929622;29;20035;-86
2021/12/31 09:06:54;;;;;;;173.95;34.90;;;;;;;3.61;100.00;98250.91;4919226;29;20036;-84
2021/12/31 09:09:19;;;;;;;403.45;52.53;;;;;;;3.74;100.00;98257.66;4920985;29;20535;-82
2021/12/31 09:11:45;;;;;;;230.60;39.38;;;;;;;3.97;100.00;98254.44;4935403;29;20050;-83
2021/12/31 09:14:12;;;;;;;259.15;37.80;;;;;;;4.05;100.00;98255.16;4914797;29;20041;-83
2021/12/31 09:16:38;;;;;;;256.88;40.42;;;;;;;4.36;100.00;98253.47;4906938;29;20499;-84
2021/12/31 09:19:03;;;;;;;278.20;43.15;;;;;;;4.27;100.00;98250.19;4931437;29;20074;-83
2021/12/31 09:21:30;;;;;;;249.88;45.33;;;;;;;4.27;100.00;98243.09;4914803;29;20584;-84
2021/12/31 09:23:56;;;;;;;185.02;36.55;;;;;;;4.43;100.00;98242.72;4940357;29;20039;-84
2021/12/31 09:26:21;;;;;;;186.48;40.22;;;;;;;4.06;100.00;98227.75;4918376;29;20346;-82
2021/12/31 09:28:47;;;;;;;286.58;56.45;;;;;;;4.16;100.00;98262.78;4936693;29;20035;-83
2021/12/31 09:31:13;;;;;;;253.57;51.03;;;;;;;4.11;100.00;98259.41;4934121;29;20130;-83
2021/12/31 09:33:39;;;;;;;243.90;48.60;;;;;;;4.16;100.00;98249.56;4947133;29;20055;-82
2021/12/31 09:36:08;;;;;;;226.88;56.03;;;;;;;4.31;100.00;98254.47;4911126;29;20043;-83
2021/12/31 09:38:33;;;;;;;189.20;63.67;;;;;;;4.48;100.00;98257.56;4921250;29;20447;-83
2021/12/31 09:40:59;;;;;;;186.93;58.63;;;;;;;4.67;100.00;98239.38;4915157;29;20043;-84
2021/12/31 09:43:25;;;;;;;184.02;59.67;;;;;;;4.43;100.00;98221.50;4927017;29;20058;-85
2021/12/31 09:45:52;;;;;;;183.52;59.10;;;;;;;4.51;100.00;98236.28;4934973;29;20047;-84
2021/12/31 09:48:20;;;;;;;279.95;71.25;;;;;;;4.68;100.00;98247.28;4938306;29;20507;-85
2021/12/31 09:50:48;;;;;;;252.70;59.63;;;;;;;4.92;100.00;98233.34;4913650;29;20480;-83
2021/12/31 09:53:21;;;;;;;209.40;59.97;;;;;;;5.03;100.00;98219.78;4918249;29;20415;-83
2021/12/31 09:55:49;;;;;;;176.85;64.38;;;;;;;5.17;100.00;98233.50;4927427;29;20070;-84
2021/12/31 09:58:17;;;;;;;217.48;75.43;;;;;;;4.87;100.00;98227.31;4921895;29;20070;-84
2021/12/31 10:00:45;;;;;;;198.57;67.43;;;;;;;4.93;100.00;98228.91;4936309;29;20416;-84
2021/12/31 10:03:31;;;;;;;219.70;66.95;;;;;;;4.82;100.00;98231.88;4922540;29;20032;-83
2021/12/31 10:06:03;;;;;;;201.10;61.50;;;;;;;4.72;100.00;98229.53;4932531;29;20504;-85
2021/12/31 10:08:31;;;;;;;170.57;58.75;;;;;;;4.91;100.00;98218.38;4930516;29;20411;-83
2021/12/31 10:11:20;;;;;;;170.05;57.35;;;;;;;5.10;100.00;98225.78;4931777;29;20031;-84
2021/12/31 10:13:51;;;;;;;163.68;53.30;;;;;;;5.19;100.00;98229.03;4938523;29;20369;-85
2021/12/31 10:16:23;;;;;;;150.40;53.20;;;;;;;5.74;100.00;98224.69;4937728;29;20070;-84
2021/12/31 10:18:49;;;;;;;124.35;47.90;;;;;;;5.96;100.00;98223.09;4937532;29;20070;-85
2021/12/31 10:21:19;;;;;;;91.60;41.00;;;;;;;6.17;100.00;98201.16;4933995;29;20075;-83
2021/12/31 10:23:47;;;;;;;101.55;40.97;;;;;;;6.63;100.00;98197.75;4908461;29;20488;-84
2021/12/31 10:26:15;;;;;;;96.05;39.50;;;;;;;6.55;98.93;98198.00;4931444;29;20047;-84
2021/12/31 10:28:57;;;;;;;104.38;39.67;;;;;;;6.36;98.97;98183.66;4909300;29;20127;-83
2021/12/31 10:31:24;;;;;;;84.65;36.28;;;;;;;6.54;100.00;98219.34;4924615;29;20020;-83
2021/12/31 10:33:57;;;;;;;85.70;37.15;;;;;;;6.76;98.60;98179.56;4933170;29;20099;-84
2021/12/31 10:36:36;;;;;;;81.20;35.47;;;;;;;7.37;94.91;98170.13;4921790;29;20019;-81
2021/12/31 10:39:16;;;;;;;86.25;37.20;;;;;;;8.15;89.78;98164.19;4928482;29;20062;-76
2021/12/31 10:41:41;;;;;;;102.05;39.15;;;;;;;8.36;86.71;98178.47;4936731;29;20050;-75
2021/12/31 10:44:07;;;;;;;83.15;36.42;;;;;;;7.86;88.53;98180.53;4927191;29;20487;-76
2021/12/31 10:46:33;;;;;;;89.88;38.08;;;;;;;7.47;92.28;98182.16;4920388;29;20126;-76
2021/12/31 10:49:06;;;;;;;102.82;47.08;;;;;;;7.94;91.07;98167.78;4925550;29;20111;-75
2021/12/31 10:51:41;;;;;;;106.20;51.90;;;;;;;8.78;86.73;98190.84;4950505;28;20170;-75
2021/12/31 10:54:27;;;;;;;129.30;60.33;;;;;;;9.11;82.46;98174.16;4934985;29;20122;-81
2021/12/31 10:56:52;;;;;;;147.95;70.10;;;;;;;9.27;81.13;98163.66;4907884;29;20039;-82
2021/12/31 10:59:18;;;;;;;128.95;61.00;;;;;;;9.44;80.16;98185.09;4912559;29;20036;-81
2021/12/31 11:01:43;;;;;;;122.25;59.72;;;;;;;10.21;75.38;98175.94;4916786;29;20047;-81
2021/12/31 11:04:11;;;;;;;118.82;56.22;;;;;;;11.09;71.26;98173.13;4912255;29;20109;-80
2021/12/31 11:06:40;;;;;;;112.68;54.58;;;;;;;11.54;69.99;98169.72;4908224;29;20039;-80
2021/12/31 11:09:07;;;;;;;126.65;63.10;;;;;;;13.25;62.17;98157.72;4908303;29;20526;-76
2021/12/31 11:11:35;;;;;;;137.88;74.35;;;;;;;14.54;56.98;98150.06;4920681;29;20035;-81
2021/12/31 11:14:02;;;;;;;127.10;65.82;;;;;;;15.36;53.28;98136.19;4941496;29;20090;-85
2021/12/31 11:16:28;;;;;;;127.85;65.60;;;;;;;16.74;50.09;98133.94;4912108;29;20047;-86
2021/12/31 11:18:54;;;;;;;137.35;72.78;;;;;;;17.29;48.73;98136.72;4915624;29;20050;-87